createdAt,value
2016-10-24T00:00:07.161Z,87.74
2016-10-24T00:00:47.684Z,88.02
2016-10-24T00:01:28.173Z,88.02
2016-10-24T00:02:08.727Z,87.83
2016-10-24T00:02:49.278Z,87.74
2016-10-24T00:03:29.873Z,87.74
2016-10-24T00:04:10.423Z,87.83
2016-10-24T00:04:50.935Z,87.64
2016-10-24T00:05:31.492Z,87.16
2016-10-24T00:06:12.044Z,87.07
2016-10-24T00:06:52.585Z,87.54
2016-10-24T00:07:33.140Z,86.78
2016-10-24T00:08:13.640Z,86.78
2016-10-24T00:08:54.249Z,86.78
2016-10-24T00:09:34.893Z,86.78
2016-10-24T00:10:15.343Z,86.88
2016-10-24T00:10:55.847Z,86.69
2016-10-24T00:11:36.347Z,87.26
2016-10-24T00:12:16.930Z,87.54
2016-10-24T00:12:57.504Z,87.64
2016-10-24T00:13:38.091Z,87.26
2016-10-24T00:14:18.621Z,87.64
2016-10-24T00:14:59.162Z,87.83
2016-10-24T00:15:39.651Z,87.74
2016-10-24T00:16:20.112Z,87.74
2016-10-24T00:17:00.665Z,88.21
2016-10-24T00:17:41.201Z,87.83
2016-10-24T00:18:21.694Z,87.54
2016-10-24T00:19:02.222Z,87.93
2016-10-24T00:19:42.739Z,87.74
2016-10-24T00:20:23.212Z,87.74
2016-10-24T00:21:03.867Z,87.74
2016-10-24T00:21:44.427Z,87.93
2016-10-24T00:22:25.032Z,87.16
2016-10-24T00:23:05.493Z,87.45
2016-10-24T00:23:45.948Z,87.74
2016-10-24T00:24:26.513Z,88.02
2016-10-24T00:25:07.397Z,88.31
2016-10-24T00:25:47.942Z,87.83
2016-10-24T00:26:28.620Z,87.83
2016-10-24T00:27:09.139Z,87.74
2016-10-24T00:27:49.659Z,87.93
2016-10-24T00:28:30.152Z,87.74
2016-10-24T00:29:10.671Z,88.12
2016-10-24T00:29:51.224Z,88.12
2016-10-24T00:30:31.702Z,87.83
2016-10-24T00:31:12.246Z,87.93
2016-10-24T00:31:52.801Z,88.31
2016-10-24T00:32:33.338Z,88.5
2016-10-24T00:33:13.866Z,88.78
2016-10-24T00:33:54.438Z,89.17
2016-10-24T00:34:34.947Z,88.88
2016-10-24T00:35:15.457Z,88.78
2016-10-24T00:35:55.960Z,88.88
2016-10-24T00:36:36.526Z,88.88
2016-10-24T00:37:17.027Z,88.59
2016-10-24T00:37:57.497Z,88.88
2016-10-24T00:38:38.058Z,88.5
2016-10-24T00:39:18.530Z,88.88
2016-10-24T00:39:59.128Z,87.93
2016-10-24T00:40:39.675Z,88.88
2016-10-24T00:41:20.204Z,88.88
2016-10-24T00:42:00.706Z,88.59
2016-10-24T00:42:41.233Z,88.02
2016-10-24T00:43:21.778Z,88.5
2016-10-24T00:44:02.291Z,88.4
2016-10-24T00:44:42.825Z,88.59
2016-10-24T00:45:23.429Z,88.12
2016-10-24T00:46:03.950Z,88.02
2016-10-24T00:46:44.417Z,88.02
2016-10-24T00:47:24.907Z,88.5
2016-10-24T00:48:05.401Z,88.31
2016-10-24T00:48:45.930Z,88.59
2016-10-24T00:49:26.455Z,88.5
2016-10-24T00:50:07.052Z,88.5
2016-10-24T00:50:47.542Z,88.69
2016-10-24T00:51:28.181Z,89.36
2016-10-24T00:52:08.700Z,89.45
2016-10-24T00:52:49.265Z,89.26
2016-10-24T00:53:29.721Z,89.17
2016-10-24T00:54:10.311Z,89.26
2016-10-24T00:54:50.828Z,89.07
2016-10-24T00:55:31.413Z,89.26
2016-10-24T00:56:11.910Z,89.36
2016-10-24T00:56:52.425Z,89.17
2016-10-24T00:57:33.019Z,89.36
2016-10-24T00:58:13.463Z,89.26
2016-10-24T00:58:54.027Z,89.17
2016-10-24T00:59:34.483Z,89.07
2016-10-24T01:00:15.021Z,88.98
2016-10-24T01:00:55.591Z,88.69
2016-10-24T01:01:36.043Z,88.59
2016-10-24T01:02:16.566Z,88.88
2016-10-24T01:02:57.608Z,88.59
2016-10-24T01:03:38.194Z,88.4
2016-10-24T01:04:20.699Z,88.4
2016-10-24T01:05:00.817Z,88.4
2016-10-24T01:05:42.798Z,88.5
2016-10-24T01:07:35.323Z,88.88
2016-10-24T01:08:13.997Z,88.4
2016-10-24T01:08:55.752Z,88.78
2016-10-24T01:09:36.320Z,88.69
2016-10-24T01:10:17.291Z,88.31
2016-10-24T01:10:59.860Z,88.69
2016-10-24T01:11:40.390Z,88.59
2016-10-24T01:12:20.902Z,88.31
2016-10-24T01:13:01.401Z,88.31
2016-10-24T01:13:41.965Z,88.59
2016-10-24T01:14:22.492Z,88.78
2016-10-24T01:15:02.961Z,88.78
2016-10-24T01:15:43.465Z,87.93
2016-10-24T01:16:24.043Z,88.88
2016-10-24T01:17:04.593Z,88.5
2016-10-24T01:17:45.115Z,88.59
2016-10-24T01:18:25.609Z,88.78
2016-10-24T01:19:06.172Z,88.21
2016-10-24T01:19:46.756Z,88.5
2016-10-24T01:20:27.305Z,88.5
2016-10-24T01:21:07.803Z,88.21
2016-10-24T01:21:48.289Z,88.21
2016-10-24T01:22:28.838Z,88.21
2016-10-24T01:23:09.336Z,88.12
2016-10-24T01:23:49.789Z,88.12
2016-10-24T01:24:30.390Z,88.12
2016-10-24T01:25:10.911Z,87.74
2016-10-24T01:25:51.461Z,88.12
2016-10-24T01:26:32.054Z,88.12
2016-10-24T01:27:12.556Z,88.21
2016-10-24T01:27:53.119Z,88.4
2016-10-24T01:28:33.653Z,88.31
2016-10-24T01:29:14.126Z,88.5
2016-10-24T01:29:54.651Z,88.02
2016-10-24T01:30:35.139Z,87.83
2016-10-24T01:31:15.699Z,88.31
2016-10-24T01:31:56.311Z,88.02
2016-10-24T01:32:36.881Z,87.74
2016-10-24T01:33:17.383Z,87.93
2016-10-24T01:33:57.933Z,88.02
2016-10-24T01:34:38.407Z,87.83
2016-10-24T01:35:18.927Z,88.02
2016-10-24T01:35:59.379Z,88.02
2016-10-24T01:36:39.895Z,88.02
2016-10-24T01:37:20.413Z,87.93
2016-10-24T01:38:00.911Z,88.21
2016-10-24T01:38:41.412Z,88.21
2016-10-24T01:39:22.051Z,88.31
2016-10-24T01:40:02.585Z,88.4
2016-10-24T01:40:43.160Z,88.5
2016-10-24T01:41:23.623Z,88.4
2016-10-24T01:42:04.170Z,88.78
2016-10-24T01:42:44.654Z,88.5
2016-10-24T01:43:25.181Z,88.78
2016-10-24T01:44:05.760Z,88.31
2016-10-24T01:44:46.282Z,88.59
2016-10-24T01:45:26.784Z,88.5
2016-10-24T01:46:07.375Z,88.5
2016-10-24T01:46:47.827Z,88.31
2016-10-24T01:47:28.370Z,87.74
2016-10-24T01:48:08.874Z,87.83
2016-10-24T01:48:49.451Z,88.02
2016-10-24T01:49:29.977Z,88.4
2016-10-24T01:50:10.518Z,88.88
2016-10-24T01:50:51.028Z,88.4
2016-10-24T01:51:31.478Z,88.69
2016-10-24T01:52:12.018Z,88.5
2016-10-24T01:52:52.565Z,88.31
2016-10-24T01:53:33.247Z,88.5
2016-10-24T01:54:13.786Z,88.69
2016-10-24T01:54:54.295Z,88.59
2016-10-24T01:55:34.875Z,88.4
2016-10-24T01:56:15.407Z,88.31
2016-10-24T01:56:56.026Z,88.31
2016-10-24T01:57:36.521Z,88.5
2016-10-24T01:58:17.053Z,88.69
2016-10-24T01:58:57.658Z,88.88
2016-10-24T01:59:38.160Z,88.5
2016-10-24T02:00:18.602Z,88.78
2016-10-24T02:00:59.125Z,88.4
2016-10-24T02:01:39.755Z,88.21
2016-10-24T02:02:20.255Z,88.4
2016-10-24T02:03:00.801Z,88.4
2016-10-24T02:03:41.383Z,88.21
2016-10-24T02:04:21.852Z,88.78
2016-10-24T02:05:02.360Z,88.02
2016-10-24T02:05:42.928Z,87.93
2016-10-24T02:06:23.507Z,87.93
2016-10-24T02:07:04.098Z,88.02
2016-10-24T02:07:44.687Z,87.74
2016-10-24T02:08:25.284Z,87.74
2016-10-24T02:09:05.887Z,87.74
2016-10-24T02:09:46.475Z,88.21
2016-10-24T02:10:27.092Z,87.83
2016-10-24T02:11:07.733Z,87.93
2016-10-24T02:11:48.274Z,88.02
2016-10-24T02:12:28.870Z,87.83
2016-10-24T02:13:09.375Z,88.02
2016-10-24T02:13:49.911Z,87.93
2016-10-24T02:14:30.436Z,87.74
2016-10-24T02:15:10.911Z,88.21
2016-10-24T02:15:51.448Z,88.02
2016-10-24T02:16:31.972Z,87.83
2016-10-24T02:17:12.458Z,88.31
2016-10-24T02:17:53.033Z,88.5
2016-10-24T02:18:33.604Z,88.5
2016-10-24T02:19:14.183Z,88.31
2016-10-24T02:19:54.839Z,88.31
2016-10-24T02:20:35.307Z,88.31
2016-10-24T02:21:15.907Z,88.4
2016-10-24T02:21:56.465Z,88.5
2016-10-24T02:22:37.021Z,88.5
2016-10-24T02:23:17.622Z,88.12
2016-10-24T02:23:58.160Z,88.12
2016-10-24T02:24:38.713Z,88.21
2016-10-24T02:25:19.286Z,87.83
2016-10-24T02:25:59.808Z,88.12
2016-10-24T02:26:40.384Z,88.5
2016-10-24T02:27:20.898Z,88.21
2016-10-24T02:28:01.414Z,88.69
2016-10-24T02:28:41.963Z,88.5
2016-10-24T02:29:22.555Z,88.69
2016-10-24T02:30:02.985Z,88.4
2016-10-24T02:30:43.562Z,88.4
2016-10-24T02:31:24.147Z,88.5
2016-10-24T02:32:04.662Z,88.31
2016-10-24T02:32:45.220Z,88.21
2016-10-24T02:33:25.815Z,88.54
2016-10-24T02:34:06.373Z,88.69
2016-10-24T02:34:46.978Z,88.4
2016-10-24T02:35:27.547Z,88.64
2016-10-24T02:36:08.161Z,88.31
2016-10-24T02:36:48.711Z,88.54
2016-10-24T02:37:29.219Z,88.54
2016-10-24T02:38:09.760Z,88.54
2016-10-24T02:38:50.290Z,88.73
2016-10-24T02:39:30.855Z,88.31
2016-10-24T02:40:11.419Z,88.73
2016-10-24T02:40:51.983Z,88.16
2016-10-24T02:41:32.576Z,88.16
2016-10-24T02:42:13.160Z,88.31
2016-10-24T02:42:53.686Z,88.45
2016-10-24T02:43:34.194Z,88.07
2016-10-24T02:44:14.724Z,88.35
2016-10-24T02:44:55.381Z,88.54
2016-10-24T02:45:35.917Z,88.4
2016-10-24T02:46:16.512Z,88.35
2016-10-24T02:46:57.055Z,88.07
2016-10-24T02:47:37.653Z,88.16
2016-10-24T02:48:18.143Z,88.35
2016-10-24T02:48:58.745Z,88.26
2016-10-24T02:49:39.335Z,88.35
2016-10-24T02:50:19.884Z,88.54
2016-10-24T02:51:00.434Z,88.45
2016-10-24T02:51:40.990Z,88.16
2016-10-24T02:52:21.769Z,88.35
2016-10-24T02:53:02.332Z,88.16
2016-10-24T02:53:42.942Z,88.31
2016-10-24T02:54:23.462Z,88.5
2016-10-24T02:55:04.064Z,88.54
2016-10-24T02:55:44.596Z,88.73
2016-10-24T02:56:25.056Z,88.45
2016-10-24T02:57:05.594Z,88.73
2016-10-24T02:57:46.226Z,88.64
2016-10-24T02:58:26.708Z,88.73
2016-10-24T02:59:07.301Z,88.54
2016-10-24T02:59:47.869Z,88.83
2016-10-24T03:00:28.408Z,88.73
2016-10-24T03:01:08.951Z,88.64
2016-10-24T03:01:49.547Z,88.64
2016-10-24T03:02:30.069Z,88.45
2016-10-24T03:03:10.609Z,88.45
2016-10-24T03:03:51.150Z,88.73
2016-10-24T03:04:31.645Z,88.26
2016-10-24T03:05:12.177Z,87.78
2016-10-24T03:05:52.775Z,87.78
2016-10-24T03:06:33.367Z,88.02
2016-10-24T03:07:13.899Z,88.35
2016-10-24T03:07:54.450Z,88.26
2016-10-24T03:08:35.004Z,87.87
2016-10-24T03:09:15.551Z,88.07
2016-10-24T03:09:56.060Z,87.78
2016-10-24T03:10:36.626Z,87.97
2016-10-24T03:11:17.164Z,88.35
2016-10-24T03:11:57.675Z,88.31
2016-10-24T03:12:38.193Z,88.45
2016-10-24T03:13:18.740Z,88.45
2016-10-24T03:13:59.299Z,88.35
2016-10-24T03:14:39.817Z,88.35
2016-10-24T03:15:20.386Z,88.26
2016-10-24T03:16:00.900Z,87.87
2016-10-24T03:16:41.402Z,87.97
2016-10-24T03:17:21.961Z,87.87
2016-10-24T03:18:02.513Z,87.68
2016-10-24T03:18:43.060Z,87.87
2016-10-24T03:19:23.598Z,87.68
2016-10-24T03:20:04.166Z,87.87
2016-10-24T03:20:44.689Z,88.26
2016-10-24T03:21:25.173Z,88.45
2016-10-24T03:22:05.707Z,87.68
2016-10-24T03:22:46.284Z,88.35
2016-10-24T03:23:26.796Z,87.68
2016-10-24T03:24:07.334Z,88.07
2016-10-24T03:24:48.031Z,87.78
2016-10-24T03:25:28.582Z,87.97
2016-10-24T03:26:09.112Z,88.07
2016-10-24T03:26:49.578Z,88.45
2016-10-24T03:27:30.101Z,88.35
2016-10-24T03:28:10.685Z,88.73
2016-10-24T03:28:51.329Z,88.45
2016-10-24T03:29:31.880Z,88.35
2016-10-24T03:30:12.492Z,88.73
2016-10-24T03:30:53.155Z,88.83
2016-10-24T03:31:33.744Z,88.64
2016-10-24T03:32:14.350Z,88.73
2016-10-24T03:32:54.991Z,88.92
2016-10-24T03:33:35.520Z,88.45
2016-10-24T03:34:16.067Z,88.07
2016-10-24T03:34:56.627Z,88.83
2016-10-24T03:35:37.116Z,88.92
2016-10-24T03:36:17.603Z,88.73
2016-10-24T03:36:58.120Z,88.64
2016-10-24T03:37:38.696Z,88.54
2016-10-24T03:38:19.235Z,88.54
2016-10-24T03:38:59.797Z,88.83
2016-10-24T03:39:40.334Z,88.64
2016-10-24T03:40:20.895Z,88.64
2016-10-24T03:41:01.457Z,88.54
2016-10-24T03:41:41.995Z,88.54
2016-10-24T03:42:22.674Z,88.83
2016-10-24T03:43:03.095Z,88.64
2016-10-24T03:43:43.630Z,88.35
2016-10-24T03:44:24.176Z,88.83
2016-10-24T03:45:04.736Z,87.97
2016-10-24T03:45:45.360Z,88.45
2016-10-24T03:46:25.852Z,88.26
2016-10-24T03:47:06.387Z,88.45
2016-10-24T03:47:46.925Z,88.92
2016-10-24T03:48:27.405Z,88.92
2016-10-24T03:49:07.922Z,88.64
2016-10-24T03:49:48.465Z,88.64
2016-10-24T03:50:28.982Z,88.54
2016-10-24T03:51:09.549Z,88.45
2016-10-24T03:51:50.049Z,88.64
2016-10-24T03:52:30.624Z,88.83
2016-10-24T03:53:11.222Z,88.45
2016-10-24T03:53:51.745Z,88.83
2016-10-24T03:54:32.295Z,88.45
2016-10-24T03:55:12.867Z,88.45
2016-10-24T03:55:53.406Z,88.54
2016-10-24T03:56:33.950Z,88.83
2016-10-24T03:57:14.450Z,88.83
2016-10-24T03:57:55.031Z,88.35
2016-10-24T03:58:35.471Z,88.35
2016-10-24T03:59:16.042Z,88.64
2016-10-24T03:59:56.578Z,88.64
2016-10-24T04:00:37.074Z,88.45
2016-10-24T04:01:17.627Z,88.64
2016-10-24T04:01:58.156Z,88.16
2016-10-24T04:02:38.633Z,88.45
2016-10-24T04:03:19.162Z,88.26
2016-10-24T04:03:59.693Z,88.73
2016-10-24T04:04:40.157Z,87.87
2016-10-24T04:05:20.628Z,88.64
2016-10-24T04:06:01.166Z,88.73
2016-10-24T04:06:41.726Z,89.02
2016-10-24T04:07:22.263Z,89.12
2016-10-24T04:08:02.815Z,88.64
2016-10-24T04:08:43.369Z,88.64
2016-10-24T04:09:23.874Z,88.45
2016-10-24T04:10:04.471Z,88.54
2016-10-24T04:10:45.118Z,88.54
2016-10-24T04:11:25.621Z,88.83
2016-10-24T04:12:06.280Z,88.54
2016-10-24T04:12:46.797Z,88.64
2016-10-24T04:13:27.425Z,88.35
2016-10-24T04:14:07.893Z,88.73
2016-10-24T04:14:48.375Z,88.35
2016-10-24T04:15:28.949Z,88.64
2016-10-24T04:16:09.473Z,88.64
2016-10-24T04:16:50.073Z,88.64
2016-10-24T04:17:30.586Z,88.64
2016-10-24T04:18:11.122Z,89.21
2016-10-24T04:18:51.671Z,88.92
2016-10-24T04:19:32.267Z,88.92
2016-10-24T04:20:12.803Z,88.92
2016-10-24T04:20:53.383Z,89.12
2016-10-24T04:21:33.915Z,88.73
2016-10-24T04:22:14.428Z,88.92
2016-10-24T04:22:54.926Z,89.02
2016-10-24T04:23:35.489Z,88.54
2016-10-24T04:24:16.040Z,88.64
2016-10-24T04:24:56.555Z,88.64
2016-10-24T04:25:37.023Z,88.64
2016-10-24T04:26:17.652Z,89.02
2016-10-24T04:26:58.163Z,88.83
2016-10-24T04:27:38.763Z,88.92
2016-10-24T04:28:19.273Z,88.73
2016-10-24T04:28:59.857Z,88.92
2016-10-24T04:29:40.374Z,88.92
2016-10-24T04:30:20.892Z,88.83
2016-10-24T04:31:01.486Z,88.92
2016-10-24T04:31:41.969Z,88.92
2016-10-24T04:32:22.554Z,89.02
2016-10-24T04:33:03.132Z,88.92
2016-10-24T04:33:43.559Z,88.73
2016-10-24T04:34:24.126Z,89.12
2016-10-24T04:35:04.712Z,89.12
2016-10-24T04:35:45.246Z,88.83
2016-10-24T04:36:25.829Z,88.64
2016-10-24T04:37:06.298Z,88.45
2016-10-24T04:37:46.866Z,88.83
2016-10-24T04:38:27.385Z,88.64
2016-10-24T04:39:08.031Z,88.64
2016-10-24T04:39:48.540Z,89.02
2016-10-24T04:40:29.182Z,89.12
2016-10-24T04:41:09.745Z,89.02
2016-10-24T04:41:50.220Z,88.45
2016-10-24T04:42:30.769Z,89.02
2016-10-24T04:43:11.322Z,88.45
2016-10-24T04:43:51.821Z,88.92
2016-10-24T04:44:32.429Z,88.54
2016-10-24T04:45:12.922Z,88.64
2016-10-24T04:45:53.460Z,88.35
2016-10-24T04:46:33.972Z,88.45
2016-10-24T04:47:14.521Z,89.02
2016-10-24T04:47:55.090Z,88.73
2016-10-24T04:48:35.561Z,88.92
2016-10-24T04:49:16.173Z,89.31
2016-10-24T04:49:56.671Z,88.64
2016-10-24T04:50:37.282Z,88.83
2016-10-24T04:51:17.818Z,88.83
2016-10-24T04:51:58.392Z,89.02
2016-10-24T04:52:38.943Z,88.83
2016-10-24T04:53:19.456Z,88.64
2016-10-24T04:53:59.972Z,88.54
2016-10-24T04:54:40.516Z,88.45
2016-10-24T04:55:21.097Z,88.54
2016-10-24T04:56:03.232Z,89.02
2016-10-24T04:56:43.732Z,88.92
2016-10-24T04:57:24.355Z,88.83
2016-10-24T04:58:04.969Z,88.92
2016-10-24T04:58:45.464Z,88.83
2016-10-24T04:59:26.072Z,88.92
2016-10-24T05:00:06.653Z,88.73
2016-10-24T05:00:47.183Z,88.92
2016-10-24T05:01:27.684Z,88.73
2016-10-24T05:02:08.226Z,89.31
2016-10-24T05:02:48.709Z,89.21
2016-10-24T05:03:29.328Z,89.4
2016-10-24T05:04:09.826Z,88.92
2016-10-24T05:04:50.411Z,89.69
2016-10-24T05:05:30.955Z,89.31
2016-10-24T05:06:11.567Z,89.5
2016-10-24T05:06:52.139Z,89.21
2016-10-24T05:07:32.754Z,89.59
2016-10-24T05:08:13.234Z,89.31
2016-10-24T05:08:53.793Z,89.69
2016-10-24T05:09:34.547Z,89.12
2016-10-24T05:10:15.063Z,88.92
2016-10-24T05:10:55.597Z,89.21
2016-10-24T05:11:36.169Z,89.31
2016-10-24T05:12:16.792Z,88.73
2016-10-24T05:12:57.345Z,88.83
2016-10-24T05:13:37.933Z,89.21
2016-10-24T05:14:18.437Z,89.21
2016-10-24T05:14:58.968Z,89.4
2016-10-24T05:15:39.728Z,89.21
2016-10-24T05:16:20.274Z,89.69
2016-10-24T05:17:00.735Z,89.4
2016-10-24T05:17:41.348Z,89.69
2016-10-24T05:18:21.877Z,89.78
2016-10-24T05:19:02.373Z,89.4
2016-10-24T05:19:42.926Z,89.4
2016-10-24T05:20:23.478Z,89.59
2016-10-24T05:21:04.078Z,89.97
2016-10-24T05:21:44.585Z,90.64
2016-10-24T05:22:25.156Z,91.31
2016-10-24T05:23:05.652Z,91.64
2016-10-24T05:23:46.189Z,91.36
2016-10-24T05:24:26.646Z,91.26
2016-10-24T05:25:07.182Z,92.31
2016-10-24T05:25:47.668Z,92.5
2016-10-24T05:26:28.220Z,93.07
2016-10-24T05:27:08.742Z,93.26
2016-10-24T05:27:49.264Z,93.46
2016-10-24T05:28:29.737Z,93.26
2016-10-24T05:29:10.328Z,93.07
2016-10-24T05:29:50.828Z,94.27
2016-10-24T05:30:31.348Z,93.98
2016-10-24T05:31:11.878Z,94.27
2016-10-24T05:31:52.461Z,93.7
2016-10-24T05:32:33.062Z,94.36
2016-10-24T05:33:14.516Z,94.93
2016-10-24T05:33:54.994Z,94.93
2016-10-24T05:34:35.499Z,93.88
2016-10-24T05:35:15.998Z,93.12
2016-10-24T05:35:56.627Z,94.07
2016-10-24T05:36:37.156Z,94.17
2016-10-24T05:37:17.719Z,96.17
2016-10-24T05:37:58.278Z,96.37
2016-10-24T05:38:38.900Z,95.12
2016-10-24T05:39:19.372Z,94.74
2016-10-24T05:39:59.900Z,94.93
2016-10-24T05:40:40.476Z,95.22
2016-10-24T05:41:21.009Z,95.41
2016-10-24T05:42:01.756Z,95.12
2016-10-24T05:42:42.248Z,94.84
2016-10-24T05:43:22.824Z,94.55
2016-10-24T05:44:03.346Z,95.12
2016-10-24T05:44:43.905Z,95.61
2016-10-24T05:45:24.506Z,94.65
2016-10-24T05:46:05.039Z,94.55
2016-10-24T05:46:45.733Z,94.07
2016-10-24T05:47:26.323Z,94.74
2016-10-24T05:48:06.944Z,94.74
2016-10-24T05:48:47.416Z,94.65
2016-10-24T05:49:28.006Z,94.93
2016-10-24T05:50:08.523Z,94.17
2016-10-24T05:50:49.075Z,93.7
2016-10-24T05:51:29.683Z,92.74
2016-10-24T05:52:10.204Z,92.07
2016-10-24T05:52:50.759Z,92.26
2016-10-24T05:53:31.286Z,91.59
2016-10-24T05:54:11.901Z,91.59
2016-10-24T05:54:52.412Z,91.78
2016-10-24T05:55:32.969Z,91.21
2016-10-24T05:56:13.603Z,91.11
2016-10-24T05:56:54.226Z,90.45
2016-10-24T05:57:34.725Z,90.92
2016-10-24T05:58:15.227Z,91.3
2016-10-24T05:58:55.805Z,91.88
2016-10-24T05:59:36.303Z,91.69
2016-10-24T06:00:16.995Z,91.88
2016-10-24T06:00:57.534Z,91.59
2016-10-24T06:01:38.164Z,91.4
2016-10-24T06:02:18.732Z,91.59
2016-10-24T06:03:02.428Z,91.78
2016-10-24T06:03:42.979Z,91.97
2016-10-24T06:04:23.539Z,91.69
2016-10-24T06:05:04.054Z,91.4
2016-10-24T06:05:44.662Z,91.4
2016-10-24T06:06:25.168Z,91.78
2016-10-24T06:07:05.919Z,91.4
2016-10-24T06:07:46.683Z,91.5
2016-10-24T06:08:27.206Z,91.3
2016-10-24T06:09:07.755Z,91.5
2016-10-24T06:09:48.335Z,91.97
2016-10-24T06:10:28.937Z,91.88
2016-10-24T06:11:09.494Z,91.4
2016-10-24T06:11:50.067Z,91.21
2016-10-24T06:12:30.633Z,92.55
2016-10-24T06:13:11.219Z,93.31
2016-10-24T06:13:51.925Z,94.46
2016-10-24T06:14:32.563Z,93.98
2016-10-24T06:15:13.051Z,93.79
2016-10-24T06:15:53.620Z,93.74
2016-10-24T06:16:34.187Z,95.84
2016-10-24T06:17:14.737Z,96.03
2016-10-24T06:17:55.380Z,96.51
2016-10-24T06:18:35.865Z,95.17
2016-10-24T06:19:16.418Z,95.07
2016-10-24T06:19:57.062Z,95.27
2016-10-24T06:20:39.420Z,95.84
2016-10-24T06:21:20.022Z,96.13
2016-10-24T06:22:00.607Z,96.22
2016-10-24T06:22:41.137Z,96.47
2016-10-24T06:23:21.724Z,96.08
2016-10-24T06:24:02.335Z,96.47
2016-10-24T06:24:42.812Z,96.37
2016-10-24T06:25:23.414Z,96.18
2016-10-24T06:26:03.938Z,96.37
2016-10-24T06:26:44.634Z,97.23
2016-10-24T06:27:25.496Z,97.9
2016-10-24T06:28:06.166Z,98.38
2016-10-24T06:28:54.008Z,97.61
2016-10-24T06:29:34.240Z,94.93
2016-10-24T06:30:25.840Z,94.17
2016-10-24T06:35:31.806Z,94.65
2016-10-24T06:36:20.786Z,94.93
2016-10-24T06:37:09.792Z,95.12
2016-10-24T06:37:57.749Z,95.61
2016-10-24T06:38:46.729Z,96.08
2016-10-24T06:39:36.931Z,95.51
2016-10-24T06:40:29.851Z,94.07
2016-10-24T06:41:21.398Z,91.68
2016-10-24T06:42:08.364Z,92.74
2016-10-24T06:42:53.499Z,93.12
2016-10-24T06:43:34.184Z,94.07
2016-10-24T06:44:14.840Z,95.03
2016-10-24T06:44:56.129Z,94.26
2016-10-24T06:45:36.699Z,92.83
2016-10-24T06:46:19.077Z,91.59
2016-10-24T06:46:59.508Z,92.07
2016-10-24T06:47:40.147Z,92.07
2016-10-24T06:48:20.687Z,91.49
2016-10-24T06:49:01.210Z,89.48
2016-10-24T06:49:41.838Z,88.43
2016-10-24T06:50:22.471Z,88.81
2016-10-24T06:51:04.750Z,89.44
2016-10-24T06:55:28.830Z,90.92
2016-10-24T06:56:15.801Z,90.44
2016-10-24T06:56:57.192Z,90.44
2016-10-24T06:57:37.771Z,90.06
2016-10-24T06:58:18.914Z,89.58
2016-10-24T06:58:59.384Z,89.58
2016-10-24T06:59:40.501Z,89.58
2016-10-24T07:00:20.676Z,90.63
2016-10-24T07:01:01.250Z,90.44
2016-10-24T07:01:41.749Z,89.48
2016-10-24T07:02:22.907Z,89.58
2016-10-24T07:04:40.274Z,95.84
2016-10-24T07:05:29.001Z,96.99
2016-10-24T07:06:13.037Z,96.89
2016-10-24T07:06:53.855Z,95.84
2016-10-24T07:07:37.701Z,92.21
2016-10-24T07:08:18.387Z,89.62
2016-10-24T07:09:01.585Z,90.39
2016-10-24T07:09:43.524Z,92.4
2016-10-24T07:10:31.928Z,95.17
2016-10-24T07:11:13.095Z,97.95
2016-10-24T07:11:56.636Z,95.56
2016-10-24T07:12:37.058Z,95.94
2016-10-24T07:16:57.904Z,98.28
2016-10-24T07:17:43.258Z,97.8
2016-10-24T07:18:24.377Z,96.56
2016-10-24T07:19:07.823Z,95.41
2016-10-24T07:19:48.374Z,96.27
2016-10-24T07:20:29.945Z,94.07
2016-10-24T07:21:10.675Z,94.93
2016-10-24T07:21:55.223Z,94.45
2016-10-24T07:22:45.196Z,95.51
2016-10-24T07:27:13.176Z,95.75
2016-10-24T07:31:19.685Z,90.09
2016-10-24T07:32:11.130Z,90.09
2016-10-24T07:33:05.822Z,90.77
2016-10-24T07:33:53.850Z,91.05
2016-10-24T07:34:41.671Z,91.34
2016-10-24T07:36:33.268Z,88.56
2016-10-24T07:45:18.788Z,87.23
2016-10-24T07:48:27.595Z,86.32
2016-10-24T07:54:23.437Z,91.63
2016-10-24T07:55:11.840Z,89.72
2016-10-24T07:55:54.984Z,89.23
2016-10-24T07:56:35.597Z,88.95
2016-10-24T07:57:16.112Z,89.43
2016-10-24T07:57:56.790Z,92.21
2016-10-24T07:58:41.444Z,94.12
2016-10-24T07:59:21.969Z,93.74
2016-10-24T08:00:05.243Z,92.11
2016-10-24T08:00:45.969Z,91.92
2016-10-24T08:01:29.374Z,90.86
2016-10-24T08:02:10.004Z,91.05
2016-10-24T08:02:50.670Z,92.21
2016-10-24T08:03:30.948Z,92.58
2016-10-24T08:04:11.804Z,92.97
2016-10-24T08:04:52.382Z,94.64
2016-10-24T08:16:25.977Z,84.83
2016-10-24T08:17:06.539Z,83.92
2016-10-24T08:17:47.078Z,84.68
2016-10-24T08:18:27.672Z,85.5
2016-10-24T08:19:08.148Z,85.41
2016-10-24T08:19:48.729Z,85.02
2016-10-24T08:20:29.296Z,83.97
2016-10-24T08:21:09.967Z,84.35
2016-10-24T08:21:50.664Z,84.35
2016-10-24T08:22:31.225Z,84.55
2016-10-24T08:23:11.833Z,83.68
2016-10-24T08:23:52.499Z,83.78
2016-10-24T08:24:32.987Z,83.49
2016-10-24T08:25:13.604Z,83.97
2016-10-24T08:25:54.395Z,84.06
2016-10-24T08:26:34.890Z,84.83
2016-10-24T08:27:15.462Z,84.55
2016-10-24T08:27:55.992Z,85.35
2016-10-24T08:28:36.713Z,85.45
2016-10-24T08:29:17.252Z,86.17
2016-10-24T08:29:57.786Z,85.35
2016-10-24T08:30:40.755Z,86.02
2016-10-24T08:31:21.878Z,87.08
2016-10-24T08:32:02.536Z,87.27
2016-10-24T08:32:43.594Z,86.98
2016-10-24T08:33:24.035Z,85.83
2016-10-24T08:34:04.585Z,85.64
2016-10-24T08:34:45.096Z,85.93
2016-10-24T08:35:25.633Z,85.64
2016-10-24T08:36:06.243Z,85.74
2016-10-24T08:36:46.885Z,85.54
2016-10-24T08:37:27.591Z,85.35
2016-10-24T08:38:08.117Z,84.78
2016-10-24T08:38:48.640Z,85.25
2016-10-24T08:39:29.198Z,86.41
2016-10-24T08:40:09.704Z,84.39
2016-10-24T08:40:51.177Z,84.68
2016-10-24T08:41:31.665Z,85.35
2016-10-24T08:42:12.334Z,86.12
2016-10-24T08:42:52.947Z,84.01
2016-10-24T08:43:33.452Z,84.39
2016-10-24T08:44:13.985Z,84.88
2016-10-24T08:44:54.468Z,86.6
2016-10-24T08:45:35.035Z,88.13
2016-10-24T08:46:15.530Z,88.51
2016-10-24T08:46:56.140Z,88.99
2016-10-24T08:47:36.740Z,90.05
2016-10-24T08:48:17.503Z,89.8
2016-10-24T08:48:58.041Z,88.46
2016-10-24T08:49:38.688Z,87.02
2016-10-24T08:50:19.211Z,87.02
2016-10-24T08:50:59.806Z,87.02
2016-10-24T08:51:40.406Z,86.54
2016-10-24T08:52:21.008Z,86.45
2016-10-24T08:53:02.026Z,86.64
2016-10-24T08:53:43.226Z,88.37
2016-10-24T08:54:24.148Z,87.7
2016-10-24T08:55:04.574Z,89.47
2016-10-24T08:55:45.178Z,89.08
2016-10-24T08:56:26.799Z,88.22
2016-10-24T08:57:07.040Z,88.75
2016-10-24T08:57:47.531Z,88.41
2016-10-24T09:00:04.702Z,89.65
2016-10-24T09:00:50.617Z,89.85
2016-10-24T09:01:30.202Z,88.6
2016-10-24T09:02:10.671Z,87.84
2016-10-24T09:02:51.209Z,88.89
2016-10-24T09:03:31.916Z,87.64
2016-10-24T09:04:12.536Z,88.41
2016-10-24T09:04:53.039Z,89.37
2016-10-24T09:05:33.486Z,90.08
2016-10-24T09:06:14.132Z,88.84
2016-10-24T09:06:54.554Z,89.03
2016-10-24T09:07:35.084Z,88.41
2016-10-24T09:08:15.669Z,86.3
2016-10-24T09:08:56.156Z,86.15
2016-10-24T09:09:36.710Z,86.49
2016-10-24T09:10:17.263Z,85.15
2016-10-24T09:10:57.993Z,85
2016-10-24T09:11:38.537Z,83.47
2016-10-24T09:12:19.086Z,82.6
2016-10-24T09:12:59.602Z,82.31
2016-10-24T09:13:40.095Z,79.88
2016-10-24T09:14:20.743Z,79.88
2016-10-24T09:15:01.873Z,82.12
2016-10-24T09:15:42.486Z,82.27
2016-10-24T09:16:22.990Z,83.81
2016-10-24T09:17:03.606Z,83.61
2016-10-24T09:17:44.090Z,81.89
2016-10-24T09:18:24.716Z,82.08
2016-10-24T09:19:05.208Z,83.33
2016-10-24T09:19:47.515Z,84
2016-10-24T09:20:28.154Z,82.65
2016-10-24T09:21:09.017Z,81.89
2016-10-24T09:21:50.432Z,81.51
2016-10-24T09:22:30.984Z,82.08
2016-10-24T09:23:12.458Z,82.08
2016-10-24T09:23:53.172Z,81.22
2016-10-24T09:24:34.632Z,79.26
2016-10-24T09:25:15.120Z,80.22
2016-10-24T09:25:57.969Z,81.89
2016-10-24T09:26:56.239Z,82.32
2016-10-24T09:27:33.887Z,81.85
2016-10-24T09:33:14.923Z,82.46
2016-10-24T09:33:58.210Z,82.65
2016-10-24T09:34:41.187Z,83.14
2016-10-24T09:35:21.817Z,82.79
2016-10-24T09:36:02.162Z,81.64
2016-10-24T09:36:42.719Z,81.54
2016-10-24T09:37:23.319Z,79.24
2016-10-24T09:38:04.307Z,79.44
2016-10-24T09:38:45.201Z,79.24
2016-10-24T09:39:25.902Z,80.58
2016-10-24T09:40:06.747Z,81.07
2016-10-24T09:40:47.920Z,83.65
2016-10-24T09:41:28.602Z,84.71
2016-10-24T09:42:10.306Z,84.33
2016-10-24T09:42:52.250Z,82.6
2016-10-24T09:43:32.544Z,82.51
2016-10-24T09:44:13.441Z,85.58
2016-10-24T09:44:54.414Z,85.48